Latest Coastal Weather Observations for Eucla

IDS60701

Issued at 7:41 am CDT Thursday 2 April 2015 (issued every 10 minutes, with the page automatically refreshed every 10 minutes)

About coastal observations | Map of coastal stations | Coastal observations for SA | Marine services | Other Formats
Station Details ID: 011003 Name: EUCLA Lat: -31.68 Lon: 128.90 Height: 93.1 m
Data from the previous 72 hours. | See also: Recent months at Eucla
Date/Time
CDT
Temp

°C
Wind Pressure Rain
since 9am
mm
Weather Cloud Vis
km
Sea
Height
m
Swell
Dir
 
Speed
knots
Gust
knots
hPa Trend Height
m
Period
s
Dir
02/07:30am 17.5 ESE 11 17 1023.5 - 0.0 - - - - - - -
02/07:00am 17.6 ESE 11 19 1023.2 - 0.0 - - - - - - -
02/06:30am 17.6 ESE 10 16 1023.0 - 0.0 - - - - - - -
02/06:00am 17.4 ESE 11 18 1022.8 - 0.0 - - - - - - -
02/05:30am 17.5 SE 11 17 1022.5 - 0.0 - - - - - - -
02/05:00am 17.4 SE 11 19 1022.5 - 0.0 - - - - - - -
02/04:30am 17.8 SE 8 11 1022.5 - 0.0 - - - - - - -
02/04:00am 17.2 SE 7 10 1022.7 - 0.0 - - - - - - -
02/03:30am 17.8 SE 8 13 1023.0 - 0.0 - - - - - - -
02/03:00am 17.4 SE 8 13 1023.3 - 0.0 - - - - - - -
02/02:30am 17.3 SE 6 8 1023.7 - 0.0 - - - - - - -
02/02:00am 16.9 SSE 10 16 1023.8 - 0.0 - - - - - - -
02/01:30am 18.3 SE 7 10 1023.7 - 0.0 - - - - - - -
02/01:00am 18.0 SE 8 12 1023.8 - 0.0 - - - - - - -
02/12:30am 18.1 SE 8 13 1023.9 - 0.0 - - - - - - -
02/12:00am 18.5 SE 8 14 1024.0 - 0.0 - - - - - - -
 
Date/Time
CDT
Temp

°C
Wind Pressure Rain
since 9am
mm
Weather Cloud Vis
km
Sea
Height
m
Swell
Dir
 
Speed
knots
Gust
knots
hPa Trend Height
m
Period
s
Dir
01/11:30pm 18.5 SE 8 13 1024.3 - 0.0 - - - - - - -
01/11:00pm 18.6 SE 9 13 1024.3 - 0.0 - - - - - - -
01/10:30pm 18.1 SE 9 13 1024.1 - 0.0 - - - - - - -
01/10:00pm 18.7 SE 9 15 1023.9 - 0.0 - - - - - - -
01/09:30pm 18.6 SE 10 18 1023.6 - 0.0 - - - - - - -
01/09:00pm 18.7 SE 11 15 1023.2 - 0.0 - - - - - - -
01/08:30pm 18.8 SE 9 14 1022.9 - 0.0 - - - - - - -
01/08:00pm 18.8 SE 11 16 1022.6 - 0.0 - - - - - - -
01/07:30pm 19.0 SSE 9 15 1022.3 - 0.0 - - - - - - -
01/07:00pm 19.5 SSE 10 16 1022.0 - 0.0 - - - - - - -
01/06:30pm 19.6 SSE 13 19 1021.7 - 0.0 - - - - - - -
01/06:00pm 20.1 SSE 11 18 1021.3 - 0.0 - - - - - - -
01/05:30pm 20.5 SSE 11 16 1021.2 - 0.0 Haze Mostly cloudy 25 - - - -
01/05:00pm 20.5 S 11 18 1021.1 - 0.0 - - - - - - -
01/04:30pm 20.8 S 10 15 1020.9 - 0.0 - - - - - - -
01/04:00pm 20.4 S 9 14 1020.9 - 0.0 - - - - - - -
01/03:30pm 19.8 S 10 15 1020.9 - 0.0 - - - - - - -
01/03:00pm 21.1 S 12 18 1020.8 - 0.0 - - - - - - -
01/02:30pm 21.5 S 11 18 1020.7 - 0.0 - - - - - - -
01/02:00pm 20.7 S 11 19 1020.9 - 0.0 - - - - - - -
01/01:30pm 20.8 SSW 11 17 1021.0 - 0.0 - - - - - - -
01/01:00pm 20.9 S 13 20 1021.1 - 0.0 - - - - - - -
01/12:30pm 21.5 SSW 14 21 1020.8 - 0.0 - - - - - - -
01/12:00pm 19.8 SSW 13 21 1020.7 - 0.0 - - - - - - -
01/11:30am 20.4 SSW 13 18 1020.3 - 0.4 Drizzle Cloudy 25 - - - -
01/11:00am 20.3 SSW 13 21 1020.1 - 0.4 - - - - - - -
01/10:30am 20.6 SSW 14 20 1019.7 - 0.4 - - - - - - -
01/10:00am 20.0 SSW 11 18 1019.5 - 0.4 - - - - - - -
01/09:30am 19.7 SSW 14 21 1019.1 - 0.4 - - - - - - -
01/09:00am 19.7 SW 12 20 1018.6 - 0.4 - - - - - - -
01/08:30am 19.0 SW 7 12 1018.3 - 0.4 - - - - - - -
01/08:00am 19.3 WSW 8 14 1017.9 - 0.4 - - - - - - -
01/07:30am 19.3 WSW 7 10 1017.4 - 0.4 - - - - - - -
01/07:00am 19.5 WSW 9 14 1017.0 - 0.4 - - - - - - -
01/06:30am 19.8 WSW 10 18 1016.7 - 0.4 - - - - - - -
01/06:00am 20.1 WSW 12 17 1016.3 - 0.4 - - - - - - -
01/05:30am 20.7 WSW 10 16 1015.9 - 0.4 - - - - - - -
01/05:00am 21.4 W 11 18 1015.7 - 0.4 - - - - - - -
01/04:30am 20.7 NW 9 12 1015.7 - 0.4 - - - - - - -
01/04:00am 20.1 NNW 6 9 1015.4 - 0.4 - - - - - - -
01/03:30am 20.6 NNW 7 8 1015.5 - 0.4 - - - - - - -
01/03:00am 21.6 NW 8 12 1015.1 - 0.4 - - - - - - -
01/02:30am 21.3 NNW 9 11 1015.2 - 0.4 - - - - - - -
01/02:00am 20.4 N 7 9 1015.4 - 0.4 - - - - - - -
01/01:30am 19.7 N 7 9 1015.9 - 0.4 - - - - - - -
01/01:00am 19.6 N 8 10 1016.2 - 0.4 - - - - - - -
01/12:30am 19.3 N 8 10 1016.6 - 0.4 - - - - - - -
01/12:00am 18.6 N 7 9 1017.3 - 0.4 - - - - - - -
 
Date/Time
CDT
Temp

°C
Wind Pressure Rain
since 9am
mm
Weather Cloud Vis
km
Sea
Height
m
Swell
Dir
 
Speed
knots
Gust
knots
hPa Trend Height
m
Period
s
Dir
31/11:30pm 18.6 N 6 6 1017.8 - 0.2 - - - - - - -
31/11:00pm 18.8 N 6 7 1017.6 - 0.2 - - - - - - -
31/10:30pm 19.8 NNE 6 7 1017.4 - 0.2 - - - - - - -
31/10:00pm 19.9 NNE 7 8 1017.2 - 0.2 - - - - - - -
31/09:30pm 19.3 NNE 6 8 1017.1 - 0.2 - - - - - - -
31/09:00pm 20.0 NNW 5 6 1017.2 - 0.2 - - - - - - -
31/08:30pm 20.8 N 4 5 1016.8 - 0.2 - - - - - - -
31/08:00pm 21.0 NNW 4 5 1017.1 - 0.2 - - - - - - -
31/07:30pm 21.9 W 5 6 1016.9 - 0.2 - - - - - - -
31/07:00pm 22.6 WSW 5 7 1016.5 - 0.2 - - - - - - -
31/06:30pm 23.4 SW 7 9 1016.1 - 0.2 - - - - - - -
31/06:00pm 23.7 SW 6 8 1015.9 - 0.2 - - - - - - -
31/05:30pm 24.3 SW 7 9 1016.0 - 0.2 Fine Cloudy 40 - - - -
31/05:00pm 24.3 W 6 10 1016.0 - 0.2 - - - - - - -
31/04:30pm 24.2 W 6 9 1016.0 - 0.2 - - - - - - -
31/04:00pm 23.5 SW 5 7 1015.9 - 0.2 - - - - - - -
31/03:30pm 23.1 S 5 6 1015.6 - 0.2 - - - - - - -
31/03:00pm 23.7 S 6 8 1015.5 - 0.2 - - - - - - -
31/02:30pm 25.6 SW 8 11 1015.7 - 0.2 - - - - - - -
31/02:00pm 28.1 W 8 12 1016.0 - 0.2 - - - - - - -
31/01:30pm 28.1 WNW 7 11 1016.3 - 0.2 - - - - - - -
31/01:00pm 26.7 NNW 8 14 1016.3 - 0.2 - - - - - - -
31/12:30pm 24.0 NW 6 9 1017.0 - 0.0 - - - - - - -
31/12:00pm 22.0 NW 5 9 1017.2 - 0.0 - - - - - - -
31/11:30am 21.8 NNW 8 12 1017.2 - 0.2 Haze Mostly cloudy 25 - - - -
31/11:00am 21.5 NNE 7 10 1016.5 - 0.2 - - - - - - -
31/10:30am 20.5 NE 6 8 1017.1 - 0.2 - - - - - - -
31/10:00am 20.0 ENE 5 7 1017.0 - 0.2 - - - - - - -
31/09:30am 19.7 ENE 6 8 1017.1 - 0.2 - - - - - - -
31/09:00am 19.2 ENE 5 7 1017.3 - 0.2 - - - - - - -
31/08:30am 17.9 NE 4 4 1017.5 - 0.2 - - - - - - -
31/08:00am 17.4 E 4 5 1017.4 - 0.2 - - - - - - -
31/07:30am 17.9 E 4 5 1017.3 - 0.2 - - - - - - -
31/07:00am 18.5 ESE 5 6 1017.3 - 0.2 - - - - - - -
31/06:30am 18.3 SE 5 6 1017.1 - 0.2 - - - - - - -
31/06:00am 18.2 S 3 6 1017.0 - 0.2 - - - - - - -
31/05:30am 18.0 ENE 1 4 1017.1 - 0.2 - - - - - - -
31/05:00am 18.1 ENE 4 7 1017.3 - 0.2 - - - - - - -
31/04:30am 17.9 ENE 4 7 1017.8 - 0.2 - - - - - - -
31/04:00am 17.9 E 4 6 1018.2 - 0.2 - - - - - - -
31/03:30am 18.3 E 5 6 1018.5 - 0.2 - - - - - - -
31/03:00am 18.5 E 5 7 1018.8 - 0.2 - - - - - - -
31/02:30am 18.6 ESE 4 7 1019.1 - 0.2 - - - - - - -
31/02:00am 18.7 E 6 8 1019.4 - 0.2 - - - - - - -
31/01:30am 18.6 ESE 5 7 1019.5 - 0.2 - - - - - - -
31/01:00am 18.7 E 7 12 1019.6 - 0.2 - - - - - - -
31/12:30am 18.7 ESE 6 9 1020.1 - 0.2 - - - - - - -
31/12:00am 18.7 E 7 10 1020.4 - 0.2 - - - - - - -
 
Date/Time
CDT
Temp

°C
Wind Pressure Rain
since 9am
mm
Weather Cloud Vis
km
Sea
Height
m
Swell
Dir
 
Speed
knots
Gust
knots
hPa Trend Height
m
Period
s
Dir
30/11:30pm 18.6 E 7 10 1020.5 - 0.2 - - - - - - -
30/11:00pm 18.7 ESE 7 10 1020.6 - 0.2 - - - - - - -
30/10:30pm 18.7 ESE 7 10 1020.8 - 0.2 - - - - - - -
30/10:00pm 18.7 E 8 11 1020.8 - 0.2 - - - - - - -
30/09:30pm 18.9 ESE 8 10 1020.7 - 0.2 - - - - - - -
30/09:00pm 18.9 ESE 8 12 1020.3 - 0.2 - - - - - - -
30/08:30pm 19.2 ESE 7 10 1020.2 - 0.2 - - - - - - -
30/08:00pm 19.4 ESE 8 13 1019.7 - 0.2 - - - - - - -
30/07:30pm 19.7 ESE 9 14 1019.6 - 0.2 - - - - - - -
30/07:00pm 20.2 ESE 11 16 1019.7 - 0.2 - - - - - - -
30/06:30pm 20.9 ESE 9 15 1019.6 - 0.2 - - - - - - -
30/06:00pm 21.2 ESE 11 17 1019.4 - 0.2 - - - - - - -
30/05:30pm 21.6 SE 11 16 1019.6 - 0.2 Fine Mostly clear 40 - - - -
30/05:00pm 22.4 ESE 10 15 1019.6 - 0.2 - - - - - - -
30/04:30pm 23.0 SE 9 16 1020.0 - 0.2 - - - - - - -
30/04:00pm 23.1 SE 10 15 1020.2 - 0.2 - - - - - - -
30/03:30pm 22.9 ESE 9 14 1020.6 - 0.2 - - - - - - -
30/03:00pm 23.4 SE 8 12 1020.8 - 0.2 - - - - - - -
30/02:30pm 23.1 SE 9 14 1021.3 - 0.2 - - - - - - -
30/02:00pm 23.3 SE 9 14 1021.7 - 0.2 - - - - - - -
30/01:30pm 23.2 SE 9 11 1022.0 - 0.2 - - - - - - -
30/01:00pm 23.7 SE 9 14 1022.2 - 0.2 - - - - - - -
30/12:30pm 23.0 ESE 9 13 1022.3 - 0.2 - - - - - - -
30/12:00pm 23.4 SE 9 13 1022.5 - 0.2 - - - - - - -
30/11:30am 22.5 SE 8 12 1022.7 - 0.0 Fine Clear 40 - - - -
30/11:00am 22.7 ENE 6 10 1022.8 - 0.0 - - - - - - -
30/10:30am 21.4 ESE 7 9 1022.9 - 0.0 - - - - - - -

Other Formats:

Comma delimited format used in spreadsheet applications
http://www.bom.gov.au/fwo/IDS60701/IDS60701.94647.axf

JavaScript Object Notation format (JSON) in row-major order
http://www.bom.gov.au/fwo/IDS60701/IDS60701.94647.json